createdAt,value
2023-02-16T00:00:45.431Z,25.20
2023-02-16T00:03:22.518Z,23.78
2023-02-16T00:05:50.798Z,25.93
2023-02-16T00:08:17.540Z,25.46
2023-02-16T00:11:05.688Z,23.89
2023-02-16T00:13:45.478Z,27.09
2023-02-16T00:16:21.270Z,25.83
2023-02-16T00:18:48.667Z,24.69
2023-02-16T00:21:16.384Z,23.67
2023-02-16T00:23:43.204Z,24.18
2023-02-16T00:26:21.764Z,24.19
2023-02-16T00:28:54.777Z,24.38
2023-02-16T00:31:27.272Z,23.05
2023-02-16T00:33:55.272Z,23.42
2023-02-16T00:36:22.415Z,22.27
2023-02-16T00:38:50.159Z,22.57
2023-02-16T00:41:40.176Z,21.67
2023-02-16T00:44:16.661Z,26.24
2023-02-16T00:46:45.119Z,23.06
2023-02-16T00:49:17.137Z,23.20
2023-02-16T00:51:44.597Z,23.30
2023-02-16T00:54:11.564Z,23.10
2023-02-16T00:56:39.972Z,27.77
2023-02-16T00:59:11.789Z,29.11
2023-02-16T01:01:39.098Z,28.34
2023-02-16T01:04:08.424Z,29.28
2023-02-16T01:06:54.137Z,30.98
2023-02-16T01:09:39.933Z,26.80
2023-02-16T01:12:14.153Z,22.99
2023-02-16T01:14:40.875Z,23.78
2023-02-16T01:17:07.657Z,25.89
2023-02-16T01:19:34.478Z,27.33
2023-02-16T01:22:01.313Z,28.73
2023-02-16T01:24:28.630Z,25.71
2023-02-16T01:26:55.560Z,25.22
2023-02-16T01:29:22.531Z,23.87
2023-02-16T01:31:50.161Z,24.81
2023-02-16T01:34:17.572Z,22.95
2023-02-16T01:36:47.231Z,23.83
2023-02-16T01:39:18.695Z,25.06
2023-02-16T01:42:12.139Z,26.86
2023-02-16T01:44:59.013Z,26.83
2023-02-16T01:47:28.826Z,25.95
2023-02-16T01:49:55.949Z,24.74
2023-02-16T01:52:33.109Z,24.32
2023-02-16T01:55:37.859Z,26.28
2023-02-16T01:58:32.784Z,26.92
2023-02-16T02:01:00.225Z,25.21
2023-02-16T02:03:49.752Z,25.33
2023-02-16T02:06:20.103Z,25.03
2023-02-16T02:09:03.306Z,24.43
2023-02-16T02:11:54.552Z,23.39
2023-02-16T02:14:33.188Z,22.94
2023-02-16T02:17:05.365Z,21.78
2023-02-16T02:19:56.408Z,23.83
2023-02-16T02:23:02.036Z,23.72
2023-02-16T02:25:50.761Z,24.04
2023-02-16T02:28:36.671Z,23.09
2023-02-16T02:31:18.937Z,22.06
2023-02-16T02:34:12.918Z,21.80
2023-02-16T02:36:44.550Z,21.97
2023-02-16T02:39:40.781Z,23.86
2023-02-16T02:42:07.577Z,23.31
2023-02-16T02:45:02.857Z,23.50
2023-02-16T02:47:47.940Z,22.45
2023-02-16T02:51:11.065Z,22.83
2023-02-16T02:54:14.846Z,23.03
2023-02-16T02:57:18.104Z,23.55
2023-02-16T03:00:29.883Z,22.60
2023-02-16T03:03:09.052Z,23.25
2023-02-16T03:05:38.938Z,24.38
2023-02-16T03:08:14.631Z,25.90
2023-02-16T03:11:05.773Z,25.10
2023-02-16T03:13:40.704Z,26.05
2023-02-16T03:16:32.148Z,27.83
2023-02-16T03:19:18.309Z,23.48
2023-02-16T03:22:04.682Z,23.36
2023-02-16T03:24:51.812Z,27.33
2023-02-16T03:27:42.570Z,26.83
2023-02-16T03:30:11.567Z,29.29
2023-02-16T03:32:39.305Z,31.14
2023-02-16T03:35:07.089Z,27.97
2023-02-16T03:37:34.465Z,27.44
2023-02-16T03:40:20.065Z,27.52
2023-02-16T03:42:51.549Z,24.85
2023-02-16T03:45:20.346Z,23.03
2023-02-16T03:47:47.472Z,24.12
2023-02-16T03:50:14.381Z,24.31
2023-02-16T03:52:41.727Z,28.35
2023-02-16T03:55:09.054Z,28.31
2023-02-16T03:57:35.807Z,27.69
2023-02-16T04:00:02.770Z,28.55
2023-02-16T04:02:39.803Z,29.31
2023-02-16T04:05:07.139Z,29.12
2023-02-16T04:07:33.957Z,26.76
2023-02-16T04:10:00.659Z,25.21
2023-02-16T04:12:36.316Z,27.82
2023-02-16T04:15:12.208Z,26.43
2023-02-16T04:17:38.988Z,27.39
2023-02-16T04:20:07.307Z,26.20
2023-02-16T04:22:34.244Z,26.30
2023-02-16T04:25:01.553Z,30.08
2023-02-16T04:27:28.465Z,27.50
2023-02-16T04:29:55.632Z,24.71
2023-02-16T04:32:22.702Z,24.07
2023-02-16T04:34:49.424Z,22.67
2023-02-16T04:37:16.651Z,24.97
2023-02-16T04:39:43.397Z,23.11
2023-02-16T04:42:10.179Z,25.02
2023-02-16T04:44:37.322Z,25.97
2023-02-16T04:47:04.389Z,25.12
2023-02-16T04:49:31.519Z,26.79
2023-02-16T04:51:58.304Z,24.47
2023-02-16T04:54:25.076Z,24.38
2023-02-16T04:56:51.807Z,24.35
2023-02-16T04:59:18.559Z,23.91
2023-02-16T05:01:45.802Z,25.10
2023-02-16T05:04:12.881Z,24.65
2023-02-16T05:06:39.677Z,28.36
2023-02-16T05:09:06.995Z,29.50
2023-02-16T05:11:52.325Z,30.01
2023-02-16T05:14:43.150Z,29.11
2023-02-16T05:17:18.455Z,26.12
2023-02-16T05:19:47.506Z,27.56
2023-02-16T05:22:15.694Z,28.79
2023-02-16T05:24:43.381Z,27.42
2023-02-16T05:27:14.410Z,28.31
2023-02-16T05:29:41.541Z,30.25
2023-02-16T05:32:08.542Z,27.71
2023-02-16T05:34:35.360Z,26.72
2023-02-16T05:37:02.359Z,26.96
2023-02-16T05:39:29.282Z,27.54
2023-02-16T05:41:56.658Z,27.55
2023-02-16T05:44:23.658Z,30.35
2023-02-16T05:46:50.349Z,28.86
2023-02-16T05:49:18.666Z,27.14
2023-02-16T05:51:45.956Z,29.38
2023-02-16T05:54:17.458Z,30.09
2023-02-16T05:56:49.796Z,27.72
2023-02-16T05:59:17.144Z,27.68
2023-02-16T06:01:48.659Z,26.82
2023-02-16T06:04:18.055Z,26.36
2023-02-16T06:06:45.561Z,28.27
2023-02-16T06:09:12.854Z,27.90
2023-02-16T06:11:39.689Z,29.60
2023-02-16T06:14:09.861Z,28.92
2023-02-16T06:16:39.136Z,27.28
2023-02-16T06:19:06.772Z,26.35
2023-02-16T06:21:34.261Z,29.10
2023-02-16T06:24:01.410Z,30.69
2023-02-16T06:26:28.955Z,27.50
2023-02-16T06:28:56.097Z,27.32
2023-02-16T06:31:25.106Z,28.98
2023-02-16T06:33:52.841Z,29.22
2023-02-16T06:36:20.909Z,29.97
2023-02-16T06:38:48.122Z,27.76
2023-02-16T06:41:31.309Z,26.59
2023-02-16T06:44:03.228Z,25.17
2023-02-16T06:46:30.002Z,26.86
2023-02-16T06:48:57.028Z,26.35
2023-02-16T06:51:23.897Z,26.02
2023-02-16T06:53:50.823Z,24.42
2023-02-16T06:56:18.024Z,25.54
2023-02-16T06:58:44.740Z,26.12
2023-02-16T07:01:12.321Z,29.46
2023-02-16T07:03:39.966Z,26.63
2023-02-16T07:06:06.938Z,28.62
2023-02-16T07:08:35.662Z,25.84
2023-02-16T07:11:03.037Z,25.77
2023-02-16T07:13:29.872Z,24.54
2023-02-16T07:15:56.745Z,24.27
2023-02-16T07:18:23.928Z,25.41
2023-02-16T07:20:50.988Z,26.21
2023-02-16T07:23:18.112Z,27.16
2023-02-16T07:25:44.885Z,28.99
2023-02-16T07:28:11.597Z,24.86
2023-02-16T07:30:38.657Z,26.19
2023-02-16T07:33:08.975Z,25.06
2023-02-16T07:35:37.154Z,23.19
2023-02-16T07:38:04.920Z,27.26
2023-02-16T07:40:32.277Z,25.59
2023-02-16T07:43:04.898Z,25.28
2023-02-16T07:45:35.142Z,23.68
2023-02-16T07:48:02.593Z,23.74
2023-02-16T07:50:29.322Z,25.82
2023-02-16T07:52:56.243Z,24.53
2023-02-16T07:55:22.979Z,22.92
2023-02-16T07:57:54.611Z,21.94
2023-02-16T08:00:21.762Z,20.44
2023-02-16T08:02:49.365Z,21.69
2023-02-16T08:05:16.796Z,21.67
2023-02-16T08:07:46.447Z,22.14
2023-02-16T08:10:14.213Z,22.04
2023-02-16T08:12:41.245Z,19.49
2023-02-16T08:15:09.650Z,21.02
2023-02-16T08:17:36.686Z,23.75
2023-02-16T08:20:06.062Z,22.59
2023-02-16T08:22:32.868Z,21.29
2023-02-16T08:24:59.944Z,21.64
2023-02-16T08:27:26.987Z,22.66
2023-02-16T08:29:54.215Z,22.42
2023-02-16T08:32:21.446Z,20.38
2023-02-16T08:34:48.250Z,18.50
2023-02-16T08:37:15.015Z,18.26
2023-02-16T08:39:42.279Z,19.44
2023-02-16T08:42:12.197Z,18.99
2023-02-16T08:44:39.899Z,21.65
2023-02-16T08:47:06.987Z,21.93
2023-02-16T08:49:34.026Z,20.82
2023-02-16T08:52:01.593Z,19.86
2023-02-16T08:54:30.685Z,18.23
2023-02-16T08:56:59.212Z,21.29
2023-02-16T08:59:28.483Z,20.13
2023-02-16T09:01:57.034Z,20.43
2023-02-16T09:04:25.636Z,20.59
2023-02-16T09:06:53.421Z,17.90
2023-02-16T09:09:20.937Z,19.21
2023-02-16T09:11:48.413Z,19.99
2023-02-16T09:14:19.221Z,17.75
2023-02-16T09:16:46.468Z,17.36
2023-02-16T09:19:15.996Z,17.74
2023-02-16T09:21:43.741Z,16.44
2023-02-16T09:24:11.628Z,14.83
2023-02-16T09:26:42.588Z,14.31
2023-02-16T09:29:12.477Z,13.95
2023-02-16T09:31:39.853Z,13.83
2023-02-16T09:34:16.120Z,17.30
2023-02-16T09:36:43.954Z,13.99
2023-02-16T09:39:10.986Z,15.73
2023-02-16T09:41:49.501Z,15.65
2023-02-16T09:44:25.803Z,16.75
2023-02-16T09:46:57.382Z,15.44
2023-02-16T09:49:38.844Z,13.90
2023-02-16T09:52:08.626Z,14.57
2023-02-16T09:54:45.493Z,16.07
2023-02-16T09:57:37.968Z,16.78
2023-02-16T10:00:11.823Z,15.55
2023-02-16T10:03:00.467Z,16.74
2023-02-16T10:05:41.444Z,16.54
2023-02-16T10:08:14.535Z,16.49
2023-02-16T10:11:07.614Z,15.59
2023-02-16T10:13:49.688Z,15.95
2023-02-16T10:16:22.823Z,14.69
2023-02-16T10:18:53.569Z,14.49
2023-02-16T10:21:27.662Z,16.33
2023-02-16T10:24:05.371Z,14.85
2023-02-16T10:26:38.821Z,14.91
2023-02-16T10:29:14.604Z,13.61
2023-02-16T10:32:00.470Z,13.83
2023-02-16T10:34:47.295Z,13.95
2023-02-16T10:37:35.385Z,14.63
2023-02-16T10:40:29.567Z,13.47
2023-02-16T10:43:05.545Z,13.85
2023-02-16T10:45:53.018Z,13.81
2023-02-16T10:48:21.846Z,12.91
2023-02-16T10:51:03.701Z,15.03
2023-02-16T10:53:44.090Z,14.19
2023-02-16T10:56:35.957Z,13.61
2023-02-16T10:59:07.931Z,12.15
2023-02-16T11:01:42.742Z,13.49
2023-02-16T11:04:30.865Z,13.58
2023-02-16T11:07:08.562Z,12.86
2023-02-16T11:09:36.870Z,13.63
2023-02-16T11:12:24.071Z,12.74
2023-02-16T11:14:54.868Z,13.50
2023-02-16T11:17:23.926Z,13.21
2023-02-16T11:20:02.097Z,14.45
2023-02-16T11:22:32.156Z,12.77
2023-02-16T11:25:24.258Z,13.03
2023-02-16T11:27:53.036Z,13.00
2023-02-16T11:30:32.230Z,13.60
2023-02-16T11:33:02.454Z,12.16
2023-02-16T11:35:33.038Z,12.55
2023-02-16T11:38:00.310Z,12.35
2023-02-16T11:40:31.064Z,15.17
2023-02-16T11:43:01.016Z,14.30
2023-02-16T11:45:29.677Z,15.06
2023-02-16T11:48:12.315Z,15.34
2023-02-16T11:50:54.730Z,14.75
2023-02-16T11:53:31.398Z,14.56
2023-02-16T11:56:27.422Z,15.16
2023-02-16T11:59:20.882Z,15.75
2023-02-16T12:02:28.994Z,15.12
2023-02-16T12:05:07.575Z,13.79
2023-02-16T12:07:53.695Z,14.07
2023-02-16T12:10:26.179Z,12.87
2023-02-16T12:13:26.471Z,15.89
2023-02-16T12:16:12.737Z,14.89
2023-02-16T12:18:55.051Z,14.31
2023-02-16T12:21:36.618Z,14.24
2023-02-16T12:24:09.724Z,12.94
2023-02-16T12:26:58.758Z,13.10
2023-02-16T12:29:39.336Z,13.45
2023-02-16T12:32:30.618Z,12.31
2023-02-16T12:35:28.937Z,13.33
2023-02-16T12:38:19.404Z,14.78
2023-02-16T12:40:50.100Z,14.42
2023-02-16T12:43:31.687Z,15.24
2023-02-16T12:46:04.631Z,14.15
2023-02-16T12:48:54.233Z,12.93
2023-02-16T12:51:26.130Z,13.14
2023-02-16T12:54:02.097Z,13.31
2023-02-16T12:56:39.138Z,13.70
2023-02-16T12:59:33.453Z,12.28
2023-02-16T13:02:04.993Z,14.29
2023-02-16T13:04:55.937Z,14.34
2023-02-16T13:07:44.815Z,13.75
2023-02-16T13:10:11.456Z,15.58
2023-02-16T13:12:52.243Z,13.82
2023-02-16T13:15:37.097Z,13.13
2023-02-16T13:18:26.171Z,14.76
2023-02-16T13:21:00.168Z,14.10
2023-02-16T13:24:01.271Z,14.87
2023-02-16T13:26:47.347Z,15.38
2023-02-16T13:29:40.408Z,14.96
2023-02-16T13:32:22.699Z,13.75
2023-02-16T13:34:55.777Z,14.55
2023-02-16T13:37:27.406Z,14.23
2023-02-16T13:40:18.826Z,14.79
2023-02-16T13:43:03.810Z,14.45
2023-02-16T13:45:40.945Z,15.02
2023-02-16T13:48:29.642Z,14.57
2023-02-16T13:51:13.924Z,14.38
2023-02-16T13:53:43.230Z,13.05
2023-02-16T13:56:15.003Z,13.53
2023-02-16T13:58:41.762Z,13.23
2023-02-16T14:01:39.354Z,14.61
2023-02-16T14:04:13.061Z,13.47
2023-02-16T14:06:42.921Z,12.75
2023-02-16T14:09:12.501Z,12.29
2023-02-16T14:11:54.772Z,13.60
2023-02-16T14:14:55.291Z,12.63
2023-02-16T14:17:22.459Z,12.82
2023-02-16T14:19:58.482Z,13.65
2023-02-16T14:22:43.577Z,12.58
2023-02-16T14:25:22.582Z,13.18
2023-02-16T14:28:02.795Z,12.75
2023-02-16T14:30:35.650Z,13.57
2023-02-16T14:33:43.226Z,14.07
2023-02-16T14:36:16.855Z,13.08
2023-02-16T14:38:47.593Z,13.57
2023-02-16T14:41:25.831Z,14.09
2023-02-16T14:44:04.924Z,14.63
2023-02-16T14:46:39.059Z,14.77
2023-02-16T14:49:39.915Z,14.34
2023-02-16T14:52:35.923Z,13.95
2023-02-16T14:55:18.662Z,14.52
2023-02-16T14:57:45.860Z,14.05
2023-02-16T15:00:42.066Z,14.91
2023-02-16T15:03:24.328Z,14.22
2023-02-16T15:06:00.203Z,15.60
2023-02-16T15:08:36.969Z,15.17
2023-02-16T15:11:20.370Z,15.76
2023-02-16T15:13:51.787Z,14.60
2023-02-16T15:16:20.694Z,15.47
2023-02-16T15:18:52.107Z,14.65
2023-02-16T15:21:28.348Z,15.56
2023-02-16T15:23:59.980Z,14.93
2023-02-16T15:26:35.644Z,15.08
2023-02-16T15:29:27.078Z,15.52
2023-02-16T15:31:54.519Z,14.56
2023-02-16T15:34:34.891Z,16.21
2023-02-16T15:37:19.636Z,15.61
2023-02-16T15:40:02.987Z,16.39
2023-02-16T15:42:34.183Z,17.83
2023-02-16T15:45:00.929Z,16.38
2023-02-16T15:47:27.706Z,16.29
2023-02-16T15:49:56.062Z,17.65
2023-02-16T15:52:33.742Z,17.26
2023-02-16T15:55:03.673Z,17.32
2023-02-16T15:57:36.100Z,17.57
2023-02-16T16:00:15.898Z,17.65
2023-02-16T16:02:48.778Z,18.05
2023-02-16T16:05:33.396Z,17.89
2023-02-16T16:08:01.159Z,18.50
2023-02-16T16:10:35.619Z,17.85
2023-02-16T16:13:06.713Z,17.76
2023-02-16T16:15:41.720Z,18.86
2023-02-16T16:18:39.868Z,18.83
2023-02-16T16:21:15.769Z,18.89
2023-02-16T16:23:58.121Z,16.96
2023-02-16T16:26:26.526Z,18.27
2023-02-16T16:28:54.931Z,18.58
2023-02-16T16:31:21.716Z,19.83
2023-02-16T16:34:07.723Z,17.90
2023-02-16T16:36:53.761Z,17.11
2023-02-16T16:39:48.541Z,17.65
2023-02-16T16:42:16.941Z,18.35
2023-02-16T16:45:06.972Z,18.14
2023-02-16T16:47:40.361Z,19.31
2023-02-16T16:50:10.512Z,19.77
2023-02-16T16:52:45.898Z,19.86
2023-02-16T16:55:27.700Z,18.79
2023-02-16T16:58:00.584Z,19.71
2023-02-16T17:00:31.050Z,20.09
2023-02-16T17:02:58.328Z,19.30
2023-02-16T17:05:25.526Z,19.80
2023-02-16T17:07:52.829Z,20.30
2023-02-16T17:10:21.617Z,20.43
2023-02-16T17:12:52.931Z,20.97
2023-02-16T17:15:39.412Z,19.96
2023-02-16T17:18:07.500Z,20.42
2023-02-16T17:20:34.936Z,21.18
2023-02-16T17:23:04.903Z,20.48
2023-02-16T17:25:35.233Z,19.94
2023-02-16T17:28:03.418Z,20.69
2023-02-16T17:30:31.330Z,21.17
2023-02-16T17:32:58.507Z,20.92
2023-02-16T17:35:25.706Z,21.02
2023-02-16T17:37:52.441Z,20.34
2023-02-16T17:40:21.834Z,20.00
2023-02-16T17:42:50.028Z,22.46
2023-02-16T17:45:20.137Z,19.29
2023-02-16T17:47:51.307Z,21.03
2023-02-16T17:50:19.705Z,21.40
2023-02-16T17:52:46.652Z,20.91
2023-02-16T17:55:13.656Z,22.14
2023-02-16T17:57:40.856Z,20.79
2023-02-16T18:00:09.796Z,20.44
2023-02-16T18:02:36.532Z,21.39
2023-02-16T18:05:03.705Z,21.80
2023-02-16T18:07:30.666Z,21.14
2023-02-16T18:09:57.825Z,20.36
2023-02-16T18:12:26.237Z,21.72
2023-02-16T18:14:54.518Z,21.25
2023-02-16T18:17:21.448Z,21.35
2023-02-16T18:19:48.182Z,20.23
2023-02-16T18:22:15.485Z,20.17
2023-02-16T18:24:44.482Z,20.36
2023-02-16T18:27:11.223Z,21.29
2023-02-16T18:29:38.024Z,20.49
2023-02-16T18:32:05.640Z,20.90
2023-02-16T18:34:33.487Z,20.36
2023-02-16T18:37:01.116Z,21.21
2023-02-16T18:39:27.834Z,19.88
2023-02-16T18:41:54.872Z,19.49
2023-02-16T18:44:21.712Z,20.24
2023-02-16T18:46:48.438Z,23.45
2023-02-16T18:49:15.887Z,22.37
2023-02-16T18:51:42.876Z,22.49
2023-02-16T18:54:09.944Z,21.47
2023-02-16T18:56:37.853Z,24.26
2023-02-16T18:59:04.695Z,20.88
2023-02-16T19:01:33.330Z,19.76
2023-02-16T19:04:02.011Z,19.90
2023-02-16T19:06:29.029Z,23.58
2023-02-16T19:08:58.419Z,23.94
2023-02-16T19:11:28.154Z,22.60
2023-02-16T19:13:55.283Z,23.89
2023-02-16T19:16:22.212Z,22.89
2023-02-16T19:18:49.556Z,23.15
2023-02-16T19:21:16.332Z,22.84
2023-02-16T19:23:43.582Z,22.86
2023-02-16T19:26:14.661Z,21.44
2023-02-16T19:28:42.757Z,23.95
2023-02-16T19:31:16.998Z,21.45
2023-02-16T19:33:44.111Z,21.76
2023-02-16T19:36:11.800Z,21.78
2023-02-16T19:38:39.400Z,21.07
2023-02-16T19:41:40.597Z,21.89
2023-02-16T19:44:07.519Z,23.13
2023-02-16T19:46:35.023Z,21.12
2023-02-16T19:49:02.386Z,21.57
2023-02-16T19:51:29.933Z,20.67
2023-02-16T19:53:57.145Z,21.13
2023-02-16T19:56:25.972Z,20.08
2023-02-16T19:58:53.210Z,20.58
2023-02-16T20:01:23.367Z,20.65
2023-02-16T20:03:51.812Z,19.91
2023-02-16T20:06:31.170Z,19.79
2023-02-16T20:09:00.261Z,20.09
2023-02-16T20:11:29.184Z,20.45
2023-02-16T20:13:57.307Z,21.23
2023-02-16T20:16:25.011Z,20.73
2023-02-16T20:18:51.884Z,22.34
2023-02-16T20:21:23.864Z,21.67
2023-02-16T20:23:53.273Z,21.72
2023-02-16T20:26:26.311Z,21.14
2023-02-16T20:28:54.024Z,24.27
2023-02-16T20:31:29.719Z,20.58
2023-02-16T20:33:57.419Z,21.55
2023-02-16T20:36:24.246Z,20.32
2023-02-16T20:38:51.772Z,21.43
2023-02-16T20:41:21.700Z,23.29
2023-02-16T20:43:49.245Z,23.28
2023-02-16T20:46:17.160Z,23.67
2023-02-16T20:48:44.610Z,21.53
2023-02-16T20:51:13.741Z,22.45
2023-02-16T20:53:41.121Z,22.24
2023-02-16T20:56:20.595Z,23.52
2023-02-16T20:58:50.537Z,22.62
2023-02-16T21:01:27.804Z,23.42
2023-02-16T21:03:56.267Z,23.34
2023-02-16T21:06:23.948Z,22.76
2023-02-16T21:08:51.084Z,21.60
2023-02-16T21:11:18.472Z,22.87
2023-02-16T21:13:45.612Z,23.04
2023-02-16T21:16:14.329Z,23.43
2023-02-16T21:18:41.661Z,23.92
2023-02-16T21:21:10.341Z,23.39
2023-02-16T21:23:37.512Z,22.98
2023-02-16T21:26:05.930Z,23.70
2023-02-16T21:28:33.392Z,21.73
2023-02-16T21:31:06.421Z,22.59
2023-02-16T21:33:33.499Z,24.40
2023-02-16T21:36:09.151Z,25.18
2023-02-16T21:38:37.468Z,21.68
2023-02-16T21:41:24.383Z,23.79
2023-02-16T21:44:03.325Z,22.56
2023-02-16T21:46:41.905Z,23.29
2023-02-16T21:49:19.503Z,23.83
2023-02-16T21:51:48.195Z,24.40
2023-02-16T21:54:38.579Z,23.62
2023-02-16T21:57:05.301Z,21.37
2023-02-16T21:59:32.085Z,22.38
2023-02-16T22:01:59.479Z,24.15
2023-02-16T22:04:27.046Z,22.06
2023-02-16T22:06:54.808Z,22.52
2023-02-16T22:09:23.338Z,22.87
2023-02-16T22:11:51.714Z,21.71
2023-02-16T22:14:19.021Z,22.22
2023-02-16T22:16:47.370Z,23.04
2023-02-16T22:19:17.119Z,23.82
2023-02-16T22:21:45.354Z,22.46
2023-02-16T22:24:14.707Z,22.53
2023-02-16T22:26:42.153Z,22.42
2023-02-16T22:29:09.607Z,23.83
2023-02-16T22:31:38.045Z,21.18
2023-02-16T22:34:08.437Z,23.78
2023-02-16T22:36:36.960Z,21.85
2023-02-16T22:39:04.785Z,22.75
2023-02-16T22:41:33.646Z,21.31
2023-02-16T22:44:00.743Z,22.17
2023-02-16T22:46:29.687Z,20.54
2023-02-16T22:49:00.568Z,22.50
2023-02-16T22:51:29.871Z,22.36
2023-02-16T22:54:01.392Z,21.45
2023-02-16T22:56:29.859Z,22.21
2023-02-16T22:58:57.926Z,22.08
2023-02-16T23:01:27.520Z,22.50
2023-02-16T23:03:57.758Z,20.80
2023-02-16T23:06:31.820Z,21.59
2023-02-16T23:09:05.408Z,21.56
2023-02-16T23:11:33.620Z,20.85
2023-02-16T23:14:00.455Z,22.75
2023-02-16T23:16:28.852Z,22.82
2023-02-16T23:18:57.639Z,21.22
2023-02-16T23:21:28.025Z,21.21
2023-02-16T23:23:55.512Z,22.31
2023-02-16T23:26:24.202Z,21.91
2023-02-16T23:28:53.351Z,22.49
2023-02-16T23:31:20.915Z,21.71
2023-02-16T23:33:48.435Z,21.88
2023-02-16T23:36:15.758Z,21.73
2023-02-16T23:38:42.875Z,21.85
2023-02-16T23:41:12.916Z,21.11
2023-02-16T23:43:40.200Z,22.03
2023-02-16T23:46:08.391Z,21.11
2023-02-16T23:48:35.853Z,22.08
2023-02-16T23:51:02.718Z,20.79
2023-02-16T23:53:29.431Z,21.18
2023-02-16T23:55:58.239Z,21.85
2023-02-16T23:58:36.210Z,19.68
